Time;durP1;ratioP1;P1;durP2;ratioP2;P2;SDS_P1;SDS_P2;PMS_P1;PMS_P2;Temp;Humidity;BMP_temperature;BMP_pressure;BME280_temperature;BME280_humidity;BME280_pressure;Samples;Min_cycle;Max_cycle;Signal;HPM_P1;HPM_P2
2021/05/01 00:00:30;;;;;;;0.85;0.52;;;21.00;46.50;;;;;;6252346;28;20069;-74
2021/05/01 00:03:31;;;;;;;0.70;0.50;;;21.00;46.60;;;;;;6252567;28;20519;-74
2021/05/01 00:06:32;;;;;;;0.65;0.60;;;21.00;46.60;;;;;;6253088;28;20059;-74
2021/05/01 00:09:32;;;;;;;0.57;0.40;;;21.00;46.60;;;;;;6252272;28;20048;-75
2021/05/01 00:12:33;;;;;;;0.77;0.70;;;21.00;46.60;;;;;;6253067;28;20057;-74
2021/05/01 00:15:34;;;;;;;0.57;0.50;;;21.00;46.50;;;;;;6249787;28;20022;-74
2021/05/01 00:18:34;;;;;;;0.77;0.70;;;21.00;46.60;;;;;;6248677;28;20032;-74
2021/05/01 00:21:35;;;;;;;1.10;0.60;;;21.00;46.60;;;;;;6248621;28;20102;-74
2021/05/01 00:24:35;;;;;;;1.58;0.82;;;21.00;46.60;;;;;;6237419;28;20030;-75
2021/05/01 00:27:36;;;;;;;0.50;0.50;;;21.00;46.60;;;;;;6248707;28;20438;-75
2021/05/01 00:30:38;;;;;;;0.63;0.52;;;21.00;46.60;;;;;;6248133;28;20036;-75
2021/05/01 00:33:39;;;;;;;0.60;0.52;;;21.00;46.60;;;;;;6248281;28;20083;-75
2021/05/01 00:36:40;;;;;;;1.25;0.65;;;21.00;46.60;;;;;;6248378;28;20018;-75
2021/05/01 00:39:41;;;;;;;1.00;0.60;;;20.90;46.50;;;;;;6247885;28;20092;-74
2021/05/01 00:42:41;;;;;;;0.88;0.50;;;21.00;46.60;;;;;;6248616;28;20090;-75
2021/05/01 00:45:42;;;;;;;1.30;0.52;;;21.00;46.60;;;;;;6245935;28;20022;-76
2021/05/01 00:48:42;;;;;;;0.68;0.60;;;20.90;46.40;;;;;;6247843;28;20021;-75
2021/05/01 00:51:43;;;;;;;0.90;0.60;;;21.00;46.60;;;;;;6247386;28;20105;-75
2021/05/01 00:54:43;;;;;;;0.50;0.50;;;21.00;46.50;;;;;;6247689;28;20455;-75
2021/05/01 00:57:44;;;;;;;1.33;0.60;;;21.00;46.60;;;;;;6248027;28;20025;-74
2021/05/01 01:01:00;;;;;;;1.35;0.70;;;21.00;46.60;;;;;;6247633;28;20480;-75
2021/05/01 01:04:01;;;;;;;1.30;0.70;;;20.90;46.50;;;;;;6247700;28;20056;-74
2021/05/01 01:07:01;;;;;;;0.75;0.55;;;20.90;46.50;;;;;;6247606;28;20025;-75
2021/05/01 01:10:03;;;;;;;0.57;0.45;;;21.00;46.60;;;;;;6246939;28;20519;-74
2021/05/01 01:13:04;;;;;;;0.52;0.50;;;20.90;46.50;;;;;;6243881;28;20032;-74
2021/05/01 01:16:05;;;;;;;1.75;0.90;;;20.90;46.50;;;;;;6245023;28;20563;-74
2021/05/01 01:19:05;;;;;;;0.50;0.50;;;20.90;46.50;;;;;;6246912;28;20033;-75
2021/05/01 01:22:13;;;;;;;0.85;0.52;;;20.90;46.50;;;;;;6247153;28;20052;-75
2021/05/01 01:25:15;;;;;;;1.63;0.80;;;20.90;46.50;;;;;;6246971;28;20030;-75
2021/05/01 01:28:15;;;;;;;0.93;0.65;;;20.90;46.50;;;;;;6247040;28;20021;-75
2021/05/01 01:31:16;;;;;;;1.02;0.50;;;20.90;46.50;;;;;;6247175;28;20275;-75
2021/05/01 01:34:16;;;;;;;0.40;0.40;;;20.90;46.50;;;;;;6247252;28;20057;-75
2021/05/01 01:37:17;;;;;;;1.27;0.73;;;20.90;46.50;;;;;;6246496;28;20054;-75
2021/05/01 01:40:19;;;;;;;0.60;0.60;;;20.90;46.50;;;;;;6246076;28;20068;-75
2021/05/01 01:43:19;;;;;;;0.73;0.50;;;20.90;46.50;;;;;;6246690;28;20383;-74
2021/05/01 01:46:20;;;;;;;1.13;0.70;;;20.90;46.50;;;;;;6246103;28;20021;-75
2021/05/01 01:49:20;;;;;;;1.23;0.75;;;20.90;46.50;;;;;;6246941;28;20144;-75
2021/05/01 01:52:21;;;;;;;0.60;0.50;;;20.90;46.50;;;;;;6246310;28;20091;-75
2021/05/01 01:55:22;;;;;;;1.27;0.60;;;20.90;46.50;;;;;;6246606;28;20060;-75
2021/05/01 01:58:23;;;;;;;1.05;0.60;;;20.90;46.50;;;;;;6244339;28;20029;-74
2021/05/01 02:01:23;;;;;;;1.13;0.73;;;20.90;46.50;;;;;;6245993;28;20030;-74
2021/05/01 02:04:24;;;;;;;1.08;0.70;;;20.90;46.50;;;;;;6246273;28;20017;-74
2021/05/01 02:07:25;;;;;;;1.27;0.60;;;20.90;46.50;;;;;;6246138;28;20026;-75
2021/05/01 02:10:25;;;;;;;0.70;0.50;;;20.90;46.50;;;;;;6245871;28;20057;-76
2021/05/01 02:13:26;;;;;;;0.82;0.60;;;20.90;46.50;;;;;;6246064;28;20017;-75
2021/05/01 02:16:26;;;;;;;0.95;0.68;;;20.90;46.50;;;;;;6245412;28;20446;-75
2021/05/01 02:19:27;;;;;;;1.00;0.70;;;20.90;46.50;;;;;;6245540;28;20021;-75
2021/05/01 02:22:27;;;;;;;0.70;0.60;;;20.90;46.50;;;;;;6245460;28;20026;-75
2021/05/01 02:25:28;;;;;;;1.17;0.60;;;20.90;46.50;;;;;;6243737;28;20129;-75
2021/05/01 02:28:28;;;;;;;1.65;0.60;;;20.90;46.50;;;;;;6244989;28;20087;-75
2021/05/01 02:31:29;;;;;;;1.00;0.60;;;20.90;46.50;;;;;;6245395;28;20024;-75
2021/05/01 02:34:29;;;;;;;0.80;0.60;;;20.90;46.50;;;;;;6245788;28;20128;-75
2021/05/01 02:37:30;;;;;;;0.95;0.50;;;20.90;46.50;;;;;;6245373;28;20029;-75
2021/05/01 02:40:32;;;;;;;1.05;0.68;;;20.90;46.50;;;;;;6243161;28;20045;-75
2021/05/01 02:43:32;;;;;;;1.17;0.70;;;20.90;46.50;;;;;;6245371;28;20029;-75
2021/05/01 02:46:33;;;;;;;0.55;0.45;;;20.90;46.50;;;;;;6245213;28;20558;-75
2021/05/01 02:49:33;;;;;;;0.65;0.52;;;20.90;46.50;;;;;;6245325;28;20028;-75
2021/05/01 02:52:34;;;;;;;0.50;0.47;;;20.90;46.50;;;;;;6244994;28;20021;-75
2021/05/01 02:55:34;;;;;;;0.88;0.60;;;20.90;46.60;;;;;;6245803;28;20029;-75
2021/05/01 02:58:35;;;;;;;1.05;0.70;;;20.90;46.50;;;;;;6244685;28;20021;-76
2021/05/01 03:01:35;;;;;;;1.00;0.73;;;20.90;46.50;;;;;;6244896;28;20033;-75
2021/05/01 03:04:36;;;;;;;0.68;0.60;;;20.90;46.50;;;;;;6245386;28;20617;-75
2021/05/01 03:07:37;;;;;;;0.90;0.65;;;20.90;47.20;;;;;;6245156;28;20049;-75
2021/05/01 03:10:37;;;;;;;0.70;0.60;;;20.90;46.50;;;;;;6245269;28;20377;-75
2021/05/01 03:13:38;;;;;;;0.90;0.50;;;20.90;46.60;;;;;;6244743;28;20034;-76
2021/05/01 03:16:38;;;;;;;1.00;0.80;;;20.90;46.50;;;;;;6245100;28;20029;-75
2021/05/01 03:19:39;;;;;;;1.10;0.60;;;20.90;46.50;;;;;;6243202;28;20029;-75
2021/05/01 03:22:40;;;;;;;1.58;0.70;;;20.90;46.50;;;;;;6243001;28;20120;-76
2021/05/01 03:25:41;;;;;;;0.57;0.52;;;20.90;46.50;;;;;;6245252;28;20025;-75
2021/05/01 03:28:41;;;;;;;0.73;0.52;;;20.90;46.50;;;;;;6243547;28;20127;-75
2021/05/01 03:31:42;;;;;;;0.90;0.60;;;20.90;46.50;;;;;;6244883;28;20018;-75
2021/05/01 03:34:43;;;;;;;0.57;0.57;;;20.90;46.50;;;;;;6244586;28;20455;-74
2021/05/01 03:37:43;;;;;;;0.50;0.40;;;20.90;46.50;;;;;;6244605;28;20028;-75
2021/05/01 03:40:44;;;;;;;0.60;0.50;;;20.90;46.60;;;;;;6244354;28;20045;-75
2021/05/01 03:43:44;;;;;;;0.93;0.60;;;20.90;46.50;;;;;;6244682;28;20337;-75
2021/05/01 03:46:45;;;;;;;0.65;0.50;;;20.90;46.50;;;;;;6245202;28;20400;-75
2021/05/01 03:49:45;;;;;;;1.25;0.65;;;20.90;46.50;;;;;;6245426;28;20091;-75
2021/05/01 03:52:46;;;;;;;1.27;0.40;;;20.90;46.50;;;;;;6249177;28;20032;-75
2021/05/01 03:55:46;;;;;;;0.95;0.55;;;20.90;46.50;;;;;;6249672;28;20071;-75
2021/05/01 03:58:48;;;;;;;0.80;0.70;;;20.90;46.50;;;;;;6248758;28;20038;-75
2021/05/01 04:01:50;;;;;;;0.50;0.50;;;20.90;46.50;;;;;;6249547;28;20399;-75
2021/05/01 04:04:50;;;;;;;0.60;0.60;;;20.90;46.50;;;;;;6249343;28;20030;-75
2021/05/01 04:07:51;;;;;;;0.85;0.50;;;20.90;46.50;;;;;;6249418;28;20095;-75
2021/05/01 04:10:51;;;;;;;0.80;0.60;;;20.90;46.50;;;;;;6249681;28;20521;-75
2021/05/01 04:13:52;;;;;;;0.90;0.70;;;20.90;46.50;;;;;;6248951;28;20453;-75
2021/05/01 04:16:52;;;;;;;0.60;0.60;;;20.90;46.60;;;;;;6249813;28;20068;-75
2021/05/01 04:19:53;;;;;;;0.70;0.60;;;20.90;46.60;;;;;;6248702;28;20044;-75
2021/05/01 04:22:54;;;;;;;0.70;0.50;;;20.90;46.60;;;;;;6248844;28;20036;-75
2021/05/01 04:25:54;;;;;;;0.82;0.60;;;20.90;46.50;;;;;;6249020;28;20025;-75
2021/05/01 04:28:56;;;;;;;0.68;0.47;;;20.90;46.50;;;;;;6248637;28;20025;-75
2021/05/01 04:31:57;;;;;;;4.53;0.60;;;20.90;46.50;;;;;;6248597;28;20395;-75
2021/05/01 04:34:58;;;;;;;1.63;0.70;;;20.90;46.50;;;;;;6247937;28;20049;-76
2021/05/01 04:37:59;;;;;;;1.20;0.70;;;20.90;46.50;;;;;;6249610;28;20140;-75
2021/05/01 04:40:59;;;;;;;0.73;0.73;;;20.90;46.50;;;;;;6248148;28;20041;-75
2021/05/01 04:44:00;;;;;;;1.00;0.70;;;20.90;46.60;;;;;;6248198;28;20025;-75
2021/05/01 04:47:01;;;;;;;0.40;0.40;;;20.90;46.50;;;;;;6248467;28;20476;-75
2021/05/01 04:50:01;;;;;;;0.55;0.50;;;20.90;46.60;;;;;;6247588;28;20057;-75
2021/05/01 04:53:02;;;;;;;0.50;0.50;;;20.90;46.50;;;;;;6248307;28;20057;-75
2021/05/01 04:56:03;;;;;;;0.75;0.60;;;20.90;46.50;;;;;;6247978;28;20075;-75
2021/05/01 04:59:04;;;;;;;0.63;0.63;;;20.90;46.60;;;;;;6247586;28;20095;-75
2021/05/01 05:02:04;;;;;;;0.65;0.50;;;20.90;46.60;;;;;;6238200;28;20095;-75
2021/05/01 05:05:06;;;;;;;0.73;0.68;;;20.90;46.50;;;;;;6236646;28;20396;-74
2021/05/01 05:08:06;;;;;;;0.52;0.50;;;20.90;46.50;;;;;;6247581;28;20040;-75
2021/05/01 05:11:07;;;;;;;1.05;0.68;;;20.90;46.60;;;;;;6247273;28;20022;-75
2021/05/01 05:14:07;;;;;;;0.77;0.57;;;20.80;46.50;;;;;;6247150;28;20032;-75
2021/05/01 05:17:08;;;;;;;0.90;0.60;;;20.80;46.50;;;;;;6247903;28;20034;-75
2021/05/01 05:20:09;;;;;;;0.82;0.60;;;20.90;46.60;;;;;;6246919;28;20025;-75
2021/05/01 05:23:09;;;;;;;0.90;0.70;;;20.90;46.60;;;;;;6247605;28;20427;-75
2021/05/01 05:26:10;;;;;;;0.68;0.50;;;20.90;46.50;;;;;;6247121;28;20029;-75
2021/05/01 05:29:12;;;;;;;0.57;0.47;;;20.90;46.60;;;;;;6246921;28;20291;-76
2021/05/01 05:32:12;;;;;;;1.20;0.57;;;20.80;46.50;;;;;;6243117;28;20049;-75
2021/05/01 05:35:13;;;;;;;0.77;0.70;;;20.90;46.50;;;;;;6246662;28;20053;-75
2021/05/01 05:38:13;;;;;;;1.17;0.57;;;20.90;46.60;;;;;;6247302;28;20423;-75
2021/05/01 05:41:14;;;;;;;1.65;0.60;;;20.80;46.50;;;;;;6246357;28;20457;-76
2021/05/01 05:44:15;;;;;;;0.70;0.50;;;20.90;46.50;;;;;;6246486;28;20025;-75
2021/05/01 05:47:17;;;;;;;0.80;0.60;;;20.90;46.50;;;;;;6246988;28;20025;-75
2021/05/01 05:50:17;;;;;;;0.75;0.60;;;20.80;46.40;;;;;;6246470;28;20383;-75
2021/05/01 05:53:18;;;;;;;0.60;0.55;;;20.90;46.50;;;;;;6247202;28;20037;-75
2021/05/01 05:56:18;;;;;;;0.50;0.50;;;20.90;46.50;;;;;;6246212;28;20021;-75
2021/05/01 05:59:19;;;;;;;1.00;0.50;;;20.80;46.50;;;;;;6246618;28;20044;-75
2021/05/01 06:02:22;;;;;;;1.92;0.70;;;20.90;46.60;;;;;;6246245;28;20033;-75
2021/05/01 06:05:50;;;;;;;0.63;0.57;;;20.80;46.50;;;;;;6245933;28;20025;-76
2021/05/01 06:08:51;;;;;;;0.60;0.60;;;20.90;46.60;;;;;;6246815;28;20117;-75
2021/05/01 06:11:53;;;;;;;0.70;0.63;;;20.90;46.60;;;;;;6245726;28;20009;-75
2021/05/01 06:14:56;;;;;;;0.80;0.50;;;20.80;46.50;;;;;;6245200;28;20512;-74
2021/05/01 06:18:00;;;;;;;0.60;0.50;;;20.80;46.50;;;;;;6246083;28;20029;-74
2021/05/01 06:21:00;;;;;;;0.85;0.70;;;20.90;46.50;;;;;;6245855;28;20412;-74
2021/05/01 06:24:01;;;;;;;0.77;0.60;;;20.80;46.50;;;;;;6244559;28;20037;-75
2021/05/01 06:27:02;;;;;;;0.85;0.68;;;20.80;46.40;;;;;;6245830;28;20033;-74
2021/05/01 06:30:05;;;;;;;0.77;0.60;;;20.80;46.50;;;;;;6245818;28;20033;-74
2021/05/01 06:33:14;;;;;;;0.77;0.60;;;20.90;46.50;;;;;;6246151;28;20022;-75
2021/05/01 06:36:16;;;;;;;1.15;0.60;;;20.90;46.60;;;;;;6245394;28;20061;-75
2021/05/01 06:39:17;;;;;;;0.60;0.50;;;20.90;46.50;;;;;;6245579;28;20053;-75
2021/05/01 06:42:33;;;;;;;0.75;0.57;;;20.90;46.60;;;;;;6245970;28;20029;-75
2021/05/01 06:45:38;;;;;;;1.88;0.73;;;20.80;46.50;;;;;;6244033;28;20495;-74
2021/05/01 06:48:38;;;;;;;0.85;0.60;;;20.90;46.50;;;;;;6245680;28;20092;-75
2021/05/01 06:51:40;;;;;;;1.27;0.80;;;20.90;46.50;;;;;;6245215;28;20069;-75
2021/05/01 06:54:42;;;;;;;1.17;0.57;;;20.90;46.60;;;;;;6245837;28;20075;-75
2021/05/01 06:57:48;;;;;;;0.95;0.55;;;20.80;46.40;;;;;;6243233;28;20029;-74
2021/05/01 07:00:49;;;;;;;0.60;0.60;;;20.80;46.50;;;;;;6245043;28;20034;-75
2021/05/01 07:03:50;;;;;;;0.70;0.70;;;20.80;46.50;;;;;;6245745;28;20049;-75
2021/05/01 07:06:52;;;;;;;1.30;0.60;;;20.80;46.50;;;;;;6245176;28;20029;-75
2021/05/01 07:09:53;;;;;;;0.63;0.55;;;20.80;46.40;;;;;;6245480;28;20028;-74
2021/05/01 07:12:55;;;;;;;0.70;0.50;;;20.80;46.50;;;;;;6245117;28;20026;-75
2021/05/01 07:16:01;;;;;;;0.95;0.70;;;20.80;46.40;;;;;;6245064;28;20061;-75
2021/05/01 07:19:02;;;;;;;0.82;0.70;;;20.80;46.40;;;;;;6245096;28;20380;-75
2021/05/01 07:22:03;;;;;;;1.73;0.70;;;20.80;46.40;;;;;;6244623;28;20068;-75
2021/05/01 07:25:05;;;;;;;0.77;0.60;;;20.80;46.40;;;;;;6247407;28;20395;-75
2021/05/01 07:28:12;;;;;;;2.55;0.50;;;20.90;46.50;;;;;;6249869;28;20075;-76
2021/05/01 07:31:19;;;;;;;1.63;0.60;;;20.80;46.40;;;;;;6249963;28;20099;-75
2021/05/01 07:34:21;;;;;;;1.02;0.82;;;20.80;46.40;;;;;;6249808;28;20056;-75
2021/05/01 07:37:23;;;;;;;1.08;0.80;;;20.80;46.40;;;;;;6249889;28;20022;-75
2021/05/01 07:40:28;;;;;;;0.90;0.70;;;20.80;46.40;;;;;;6249702;28;20091;-74
2021/05/01 07:43:30;;;;;;;1.08;0.60;;;20.80;46.40;;;;;;6249618;28;20155;-75
2021/05/01 07:46:32;;;;;;;0.80;0.60;;;20.80;46.40;;;;;;6249166;28;20036;-76
2021/05/01 07:49:33;;;;;;;0.65;0.60;;;20.80;46.40;;;;;;6249443;28;20022;-74
2021/05/01 07:52:36;;;;;;;0.70;0.50;;;20.80;46.40;;;;;;6249423;28;20071;-75
2021/05/01 07:55:37;;;;;;;0.60;0.45;;;20.80;46.50;;;;;;6244639;28;20096;-75
2021/05/01 07:58:38;;;;;;;0.80;0.60;;;20.80;46.40;;;;;;6249075;28;20026;-74
2021/05/01 08:01:39;;;;;;;1.02;0.75;;;20.80;46.40;;;;;;6249130;28;20179;-75
2021/05/01 08:04:41;;;;;;;0.82;0.60;;;20.80;46.50;;;;;;6249304;28;20388;-76
2021/05/01 08:07:41;;;;;;;0.75;0.55;;;20.80;46.50;;;;;;6249079;28;20025;-75
2021/05/01 08:10:43;;;;;;;1.10;0.75;;;20.80;46.50;;;;;;6249549;28;20445;-74
2021/05/01 08:13:43;;;;;;;0.70;0.60;;;20.80;46.50;;;;;;6249022;28;20108;-75
2021/05/01 08:16:44;;;;;;;0.65;0.50;;;20.80;46.40;;;;;;6248925;28;20026;-74
2021/05/01 08:19:44;;;;;;;0.57;0.52;;;20.80;46.40;;;;;;6248672;28;20087;-75
2021/05/01 08:22:46;;;;;;;0.47;0.47;;;20.80;46.40;;;;;;6248566;28;20580;-75
2021/05/01 08:25:46;;;;;;;0.68;0.57;;;20.80;47.10;;;;;;6249020;28;20018;-75
2021/05/01 08:28:47;;;;;;;0.95;0.75;;;20.80;46.40;;;;;;6248524;28;20546;-75
2021/05/01 08:31:48;;;;;;;1.98;0.90;;;20.80;46.40;;;;;;6237387;28;20116;-74
2021/05/01 08:34:48;;;;;;;2.47;0.82;;;20.80;46.60;;;;;;6242681;28;20426;-75
2021/05/01 08:37:50;;;;;;;2.33;1.17;;;20.90;46.80;;;;;;6244820;28;20022;-74
2021/05/01 08:40:51;;;;;;;8.20;1.00;;;20.90;46.50;;;;;;6244486;28;20499;-74
2021/05/01 08:43:52;;;;;;;2.75;1.20;;;20.90;46.50;;;;;;6246017;28;20017;-74
2021/05/01 08:46:53;;;;;;;1.85;1.20;;;20.90;46.50;;;;;;6246043;28;20111;-75
2021/05/01 08:49:53;;;;;;;3.67;1.13;;;20.90;46.70;;;;;;6245939;28;20021;-74
2021/05/01 08:52:54;;;;;;;1.65;1.10;;;20.90;46.70;;;;;;6245595;28;20425;-74
2021/05/01 08:55:55;;;;;;;1.23;0.90;;;20.80;46.70;;;;;;6246779;28;20037;-74
2021/05/01 08:58:58;;;;;;;1.63;1.00;;;20.80;46.70;;;;;;6243841;28;20036;-74
2021/05/01 09:01:58;;;;;;;1.65;1.05;;;20.90;46.80;;;;;;6245648;28;20046;-74
2021/05/01 09:05:02;;;;;;;2.03;0.90;;;20.90;46.80;;;;;;6245493;28;20053;-74
2021/05/01 09:08:08;;;;;;;1.63;0.90;;;20.90;46.90;;;;;;6244444;28;20084;-75
2021/05/01 09:11:09;;;;;;;1.58;0.80;;;20.90;46.90;;;;;;6245142;28;20119;-72
2021/05/01 09:14:20;;;;;;;2.58;0.98;;;20.90;46.90;;;;;;6244178;28;20028;-73
2021/05/01 09:17:21;;;;;;;1.08;0.88;;;20.90;46.90;;;;;;6245516;28;20025;-75
2021/05/01 09:20:23;;;;;;;1.15;0.80;;;20.90;46.90;;;;;;6241573;28;20083;-75
2021/05/01 09:23:36;;;;;;;1.85;0.90;;;20.90;46.90;;;;;;6244839;28;20063;-75
2021/05/01 09:26:41;;;;;;;1.15;0.80;;;20.90;46.80;;;;;;6244490;28;20030;-74
2021/05/01 09:29:42;;;;;;;1.40;1.00;;;20.90;46.90;;;;;;6244497;28;20480;-74
2021/05/01 09:32:43;;;;;;;1.25;0.80;;;20.90;46.90;;;;;;6245198;28;20036;-74
2021/05/01 09:35:47;;;;;;;1.35;0.88;;;20.90;46.80;;;;;;6242508;28;20124;-74
2021/05/01 09:38:50;;;;;;;1.87;1.13;;;20.90;46.80;;;;;;6236544;28;20030;-75
2021/05/01 09:41:50;;;;;;;1.15;0.90;;;20.90;46.80;;;;;;6241450;28;20030;-74
2021/05/01 09:45:19;;;;;;;1.58;1.00;;;20.90;46.80;;;;;;6241683;28;20499;-76
2021/05/01 09:48:20;;;;;;;1.10;0.70;;;20.90;46.80;;;;;;6243502;28;20215;-74
2021/05/01 09:51:20;;;;;;;1.73;1.00;;;20.90;46.80;;;;;;6243028;28;20024;-73
2021/05/01 09:54:33;;;;;;;0.95;0.70;;;20.90;46.80;;;;;;6241446;28;20068;-74
2021/05/01 09:57:39;;;;;;;1.00;0.80;;;20.90;46.80;;;;;;6244104;28;20106;-73
2021/05/01 10:00:39;;;;;;;1.10;0.82;;;20.90;46.80;;;;;;6243950;28;20076;-75
2021/05/01 10:03:40;;;;;;;1.30;0.88;;;20.90;46.80;;;;;;6243344;28;20032;-74
2021/05/01 10:06:46;;;;;;;0.95;0.60;;;20.90;46.80;;;;;;6242006;28;20029;-74
2021/05/01 10:09:55;;;;;;;1.48;1.13;;;20.90;46.80;;;;;;6241828;28;20378;-75
2021/05/01 10:13:06;;;;;;;1.27;0.90;;;20.90;46.90;;;;;;6243055;28;20029;-73
2021/05/01 10:16:07;;;;;;;0.75;0.63;;;20.90;46.90;;;;;;6243468;28;20083;-75
2021/05/01 10:19:12;;;;;;;0.95;0.80;;;20.90;46.90;;;;;;6243830;28;20036;-75
2021/05/01 10:22:41;;;;;;;1.52;0.88;;;20.90;46.90;;;;;;6242232;28;20033;-74
2021/05/01 10:25:42;;;;;;;1.83;1.17;;;20.90;46.80;;;;;;6243000;28;20026;-74
2021/05/01 10:28:51;;;;;;;1.38;0.88;;;20.90;46.90;;;;;;6243382;28;20442;-73
2021/05/01 10:31:56;;;;;;;0.85;0.70;;;20.90;46.80;;;;;;6241874;28;20619;-75
2021/05/01 10:34:57;;;;;;;4.85;1.08;;;20.90;46.80;;;;;;6244371;28;20061;-74
2021/05/01 10:37:58;;;;;;;2.13;1.00;;;20.90;46.80;;;;;;6243741;28;20476;-76
2021/05/01 10:41:04;;;;;;;0.60;0.55;;;20.90;46.80;;;;;;6242562;28;20079;-75
2021/05/01 10:44:07;;;;;;;1.83;1.00;;;20.90;46.80;;;;;;6241734;28;20500;-74
2021/05/01 10:47:13;;;;;;;1.33;0.77;;;20.90;46.80;;;;;;6242312;28;20017;-75
2021/05/01 10:50:18;;;;;;;1.38;0.70;;;20.90;46.80;;;;;;6242989;28;20032;-74
2021/05/01 10:53:21;;;;;;;4.97;1.00;;;20.90;46.80;;;;;;6242375;28;20029;-74
2021/05/01 10:56:28;;;;;;;1.23;0.80;;;20.90;46.80;;;;;;6241278;28;20029;-74
2021/05/01 10:59:30;;;;;;;2.05;0.95;;;20.90;46.80;;;;;;6241531;28;20287;-75
2021/05/01 11:02:39;;;;;;;0.75;0.70;;;20.90;46.80;;;;;;6241364;28;20052;-73
2021/05/01 11:05:42;;;;;;;0.95;0.82;;;20.90;46.90;;;;;;6240451;28;20064;-75
2021/05/01 11:09:07;;;;;;;1.10;0.90;;;20.90;46.90;;;;;;6241275;28;20044;-74
2021/05/01 11:12:10;;;;;;;1.80;0.70;;;20.90;46.90;;;;;;6240452;28;20363;-75
2021/05/01 11:15:13;;;;;;;1.33;0.75;;;20.90;46.90;;;;;;6241629;28;20088;-75
2021/05/01 11:18:20;;;;;;;1.02;0.82;;;20.90;46.90;;;;;;6242334;28;20028;-74
2021/05/01 11:21:24;;;;;;;1.05;0.90;;;20.90;46.90;;;;;;6230540;28;20095;-76
2021/05/01 11:24:25;;;;;;;1.67;0.90;;;20.90;46.90;;;;;;6239669;28;20100;-75
2021/05/01 11:27:26;;;;;;;1.25;0.80;;;20.90;46.90;;;;;;6242179;28;20022;-74
2021/05/01 11:30:28;;;;;;;1.23;0.80;;;20.90;46.90;;;;;;6241643;28;20032;-75
2021/05/01 11:33:32;;;;;;;3.95;1.08;;;20.90;47.00;;;;;;6240386;28;20029;-74
2021/05/01 11:36:42;;;;;;;1.20;0.90;;;20.90;47.00;;;;;;6242009;28;20034;-74
2021/05/01 11:39:44;;;;;;;12.48;0.98;;;20.90;46.90;;;;;;6242122;28;20029;-74
2021/05/01 11:42:45;;;;;;;13.80;1.70;;;20.90;46.80;;;;;;6241632;28;20101;-73
2021/05/01 11:46:10;;;;;;;1.63;0.90;;;21.00;47.00;;;;;;6240979;28;20026;-74
2021/05/01 11:49:11;;;;;;;11.57;1.17;;;21.00;47.00;;;;;;6237929;28;20048;-74
2021/05/01 11:52:25;;;;;;;6.20;1.23;;;21.00;47.00;;;;;;6241192;28;20397;-74
2021/05/01 11:55:35;;;;;;;2.42;1.13;;;20.90;46.90;;;;;;6241884;28;20038;-74
2021/05/01 11:58:36;;;;;;;6.47;1.00;;;20.90;46.90;;;;;;6240745;28;20026;-74
2021/05/01 12:02:02;;;;;;;9.77;1.48;;;20.90;47.00;;;;;;6241311;28;20030;-75
2021/05/01 12:05:12;;;;;;;;;;;21.00;47.20;;;;;;6240113;28;20574;-74
2021/05/01 12:08:16;;;;;;;6.32;1.00;;;20.90;47.00;;;;;;6226206;28;19947;-74
2021/05/01 12:11:19;;;;;;;8.30;1.00;;;20.90;47.10;;;;;;6240506;28;20025;-74
2021/05/01 12:14:25;;;;;;;7.53;1.13;;;21.00;47.10;;;;;;6246016;28;20024;-75
2021/05/01 12:17:28;;;;;;;;;;;21.00;47.10;;;;;;6247901;28;20026;-74
2021/05/01 12:20:30;;;;;;;10.45;1.10;;;20.90;47.00;;;;;;6254461;28;19916;-74
2021/05/01 12:23:43;;;;;;;3.30;0.90;;;20.90;47.10;;;;;;6244603;28;20380;-74
2021/05/01 12:26:44;;;;;;;7.90;1.50;;;21.00;47.10;;;;;;6245412;28;20480;-74
2021/05/01 12:29:44;;;;;;;3.10;0.98;;;21.00;47.10;;;;;;6245524;28;20064;-74
2021/05/01 12:32:45;;;;;;;3.33;0.82;;;21.00;47.20;;;;;;6244447;28;20527;-75
2021/05/01 12:35:46;;;;;;;11.38;1.77;;;21.00;47.20;;;;;;6244237;28;20045;-74
2021/05/01 12:38:49;;;;;;;4.93;0.80;;;20.90;47.10;;;;;;6253502;28;20056;-74
2021/05/01 12:41:50;;;;;;;2.35;1.00;;;20.90;47.10;;;;;;6251699;28;20045;-74
2021/05/01 12:44:51;;;;;;;7.88;1.20;;;20.90;47.10;;;;;;6245387;28;20435;-74
2021/05/01 12:47:52;;;;;;;4.50;0.95;;;20.90;47.10;;;;;;6244107;28;20496;-74
2021/05/01 12:51:11;;;;;;;1.38;0.77;;;20.90;47.10;;;;;;6244231;28;20513;-73
2021/05/01 12:54:21;;;;;;;3.28;1.00;;;20.90;47.10;;;;;;6243742;28;20049;-75
2021/05/01 12:57:31;;;;;;;1.02;0.63;;;20.90;47.20;;;;;;6244951;28;20014;-75
2021/05/01 13:00:31;;;;;;;4.85;1.10;;;21.00;47.20;;;;;;6243138;28;20122;-75
2021/05/01 13:03:32;;;;;;;1.85;0.80;;;21.00;47.10;;;;;;6244001;28;20387;-75
2021/05/01 13:06:33;;;;;;;8.05;1.10;;;21.00;47.10;;;;;;6244228;28;20029;-74
2021/05/01 13:09:44;;;;;;;12.88;1.02;;;21.00;47.20;;;;;;6245255;28;20034;-76
2021/05/01 13:12:56;;;;;;;6.35;1.10;;;21.00;47.20;;;;;;6243226;28;20281;-74
2021/05/01 13:16:05;;;;;;;6.45;1.33;;;20.90;47.10;;;;;;6244891;28;20025;-74
2021/05/01 13:19:09;;;;;;;13.43;1.30;;;20.90;47.20;;;;;;6239218;28;20083;-74
2021/05/01 13:22:14;;;;;;;9.15;0.95;;;20.90;47.10;;;;;;6243769;28;20069;-75
2021/05/01 13:25:21;;;;;;;9.50;1.05;;;21.00;47.20;;;;;;6241450;28;20120;-74
2021/05/01 13:28:21;;;;;;;11.90;1.40;;;21.00;47.20;;;;;;6243798;28;20088;-74
2021/05/01 13:31:24;;;;;;;4.30;1.02;;;21.00;47.20;;;;;;6243603;28;20025;-74
2021/05/01 13:34:25;;;;;;;5.93;1.33;;;21.00;47.30;;;;;;6243825;28;20125;-75
2021/05/01 13:37:27;;;;;;;4.15;1.25;;;21.00;47.30;;;;;;6227821;28;20035;-74
2021/05/01 13:40:33;;;;;;;7.35;1.00;;;21.00;47.30;;;;;;6243620;28;20037;-75
2021/05/01 13:43:45;;;;;;;6.32;0.98;;;21.00;47.30;;;;;;6243544;28;20074;-75
2021/05/01 13:46:46;;;;;;;5.47;0.95;;;21.00;47.30;;;;;;6244237;28;20519;-74
2021/05/01 13:49:48;;;;;;;8.98;1.13;;;21.00;47.30;;;;;;6242721;28;20036;-74
2021/05/01 13:53:04;;;;;;;13.50;1.02;;;21.00;47.30;;;;;;6243122;28;20652;-73
2021/05/01 13:56:05;;;;;;;10.98;1.27;;;21.00;47.30;;;;;;6243773;28;20047;-75
2021/05/01 13:59:06;;;;;;;10.25;1.45;;;21.00;47.30;;;;;;6242971;28;20499;-74
2021/05/01 14:02:06;;;;;;;9.15;1.08;;;21.00;47.30;;;;;;6241196;28;20476;-74
2021/05/01 14:05:08;;;;;;;8.13;1.33;;;21.00;47.30;;;;;;6243633;28;20061;-74
2021/05/01 14:08:08;;;;;;;9.55;1.60;;;21.00;47.30;;;;;;6243373;28;20626;-74
2021/05/01 14:11:11;;;;;;;8.63;1.20;;;21.00;47.40;;;;;;6242580;28;20029;-75
2021/05/01 14:14:12;;;;;;;13.45;1.83;;;21.00;47.40;;;;;;6242297;28;20108;-75
2021/05/01 14:17:13;;;;;;;6.28;0.95;;;20.90;47.30;;;;;;6242995;28;20480;-75
2021/05/01 14:20:16;;;;;;;13.15;1.45;;;20.90;47.30;;;;;;6241269;28;20384;-75
2021/05/01 14:23:19;;;;;;;13.15;1.90;;;21.00;47.40;;;;;;6245446;28;20026;-76
2021/05/01 14:26:20;;;;;;;15.77;1.58;;;21.00;47.60;;;;;;6241868;28;20507;-76
2021/05/01 14:29:21;;;;;;;13.82;1.20;;;21.00;47.60;;;;;;6242739;28;20030;-76
2021/05/01 14:32:23;;;;;;;22.45;1.75;;;21.00;47.40;;;;;;6242126;28;20025;-76
2021/05/01 14:35:24;;;;;;;25.33;1.40;;;21.00;47.40;;;;;;6242666;28;20059;-76
2021/05/01 14:38:26;;;;;;;15.50;1.80;;;21.00;47.50;;;;;;6243306;28;20029;-76
2021/05/01 14:41:27;;;;;;;29.33;1.67;;;21.00;47.50;;;;;;6239960;28;20442;-75
2021/05/01 14:44:27;;;;;;;12.80;1.85;;;21.00;47.50;;;;;;6242619;28;20017;-76
2021/05/01 14:47:30;;;;;;;14.50;1.33;;;21.00;47.60;;;;;;6243171;28;20030;-76
2021/05/01 14:50:32;;;;;;;11.70;1.48;;;21.00;47.60;;;;;;6241986;28;20490;-76
2021/05/01 14:53:33;;;;;;;11.88;1.63;;;21.00;47.60;;;;;;6222678;28;20384;-77
2021/05/01 14:56:34;;;;;;;7.45;1.70;;;21.00;47.60;;;;;;6241583;28;20022;-76
2021/05/01 14:59:45;;;;;;;12.18;1.50;;;21.00;47.60;;;;;;6240494;28;20029;-78
2021/05/01 15:02:47;;;;;;;11.68;1.38;;;21.00;47.60;;;;;;6240872;28;20030;-77
2021/05/01 15:05:48;;;;;;;5.13;1.00;;;21.00;47.60;;;;;;6238270;28;20029;-75
2021/05/01 15:08:49;;;;;;;13.85;1.70;;;21.00;47.60;;;;;;6242391;28;20032;-77
2021/05/01 15:11:53;;;;;;;8.02;1.25;;;21.00;47.70;;;;;;6241938;28;20030;-76
2021/05/01 15:14:56;;;;;;;10.90;1.40;;;21.00;47.70;;;;;;6242701;28;20472;-76
2021/05/01 15:18:17;;;;;;;9.80;1.42;;;21.00;47.70;;;;;;6241402;28;20026;-77
2021/05/01 15:21:18;;;;;;;13.50;1.30;;;21.00;47.70;;;;;;6217407;28;20103;-76
2021/05/01 15:24:18;;;;;;;15.23;1.40;;;21.00;47.70;;;;;;6241481;28;20480;-76
2021/05/01 15:27:19;;;;;;;6.93;1.45;;;21.00;47.70;;;;;;6241881;28;20606;-76
2021/05/01 15:30:20;;;;;;;5.15;0.88;;;21.00;47.70;;;;;;6239436;28;20099;-76
2021/05/01 15:33:30;;;;;;;9.50;1.85;;;21.00;47.70;;;;;;6241216;28;20026;-76
2021/05/01 15:36:30;;;;;;;7.88;1.55;;;21.00;47.70;;;;;;6242996;28;20032;-76
2021/05/01 15:39:31;;;;;;;7.13;1.50;;;21.00;47.70;;;;;;6241450;28;20022;-76
2021/05/01 15:42:32;;;;;;;11.18;1.10;;;21.00;47.70;;;;;;6240897;28;20113;-77
2021/05/01 15:45:33;;;;;;;9.40;1.38;;;21.00;47.70;;;;;;6244082;28;20025;-76
2021/05/01 15:48:34;;;;;;;11.20;1.80;;;21.00;47.70;;;;;;6247134;28;20049;-76